Time;durP1;ratioP1;P1;durP2;ratioP2;P2;SDS_P1;SDS_P2;PMS_P1;PMS_P2;Temp;Humidity;BMP_temperature;BMP_pressure;BME280_temperature;BME280_humidity;BME280_pressure;Samples;Min_cycle;Max_cycle;Signal;HPM_P1;HPM_P2
2022/07/22 00:00:01;;;;;;;17.02;13.85;;;23.00;91.60;;;;;;5095272;28;20481;-70
2022/07/22 00:02:26;;;;;;;17.05;14.27;;;23.00;91.60;;;;;;5096633;28;20028;-73
2022/07/22 00:04:52;;;;;;;20.77;13.32;;;22.90;91.70;;;;;;5100877;27;20031;-75
2022/07/22 00:07:18;;;;;;;22.42;15.68;;;22.90;91.70;;;;;;5127095;27;20492;-74
2022/07/22 00:09:44;;;;;;;16.25;14.52;;;22.90;91.80;;;;;;5116816;28;20024;-73
2022/07/22 00:12:10;;;;;;;18.33;15.48;;;22.90;91.80;;;;;;5103054;28;20530;-74
2022/07/22 00:14:36;;;;;;;21.77;16.25;;;22.90;91.90;;;;;;5096151;28;20073;-71
2022/07/22 00:17:01;;;;;;;17.67;15.77;;;22.90;91.90;;;;;;5095946;28;20028;-71
2022/07/22 00:19:27;;;;;;;17.67;14.68;;;22.90;91.90;;;;;;5096138;28;20033;-73
2022/07/22 00:21:53;;;;;;;16.80;15.02;;;22.90;91.90;;;;;;5095818;28;20449;-72
2022/07/22 00:24:19;;;;;;;20.58;15.57;;;22.90;92.00;;;;;;5101459;28;20016;-71
2022/07/22 00:26:45;;;;;;;25.52;17.50;;;22.90;92.00;;;;;;5095944;28;20126;-73
2022/07/22 00:29:11;;;;;;;17.67;15.68;;;22.90;92.10;;;;;;5112886;28;20376;-69
2022/07/22 00:31:37;;;;;;;22.13;18.13;;;22.90;92.20;;;;;;5114848;28;20125;-73
2022/07/22 00:34:03;;;;;;;18.25;16.35;;;22.90;92.20;;;;;;5105395;28;20016;-71
2022/07/22 00:36:32;;;;;;;19.25;16.08;;;23.00;92.30;;;;;;5095747;28;20069;-72
2022/07/22 00:38:58;;;;;;;16.48;14.77;;;23.00;92.30;;;;;;5095725;28;20043;-71
2022/07/22 00:41:25;;;;;;;18.85;15.85;;;23.00;92.40;;;;;;5095703;28;20042;-72
2022/07/22 00:44:07;;;;;;;15.05;13.45;;;23.10;92.40;;;;;;5095590;28;20043;-72
2022/07/22 00:46:35;;;;;;;17.83;16.02;;;23.10;92.30;;;;;;5095559;28;20032;-71
2022/07/22 00:49:05;;;;;;;19.13;14.23;;;23.20;92.10;;;;;;5095481;28;20024;-72
2022/07/22 00:51:31;;;;;;;21.48;18.05;;;23.20;91.90;;;;;;5095273;28;20020;-73
2022/07/22 00:53:58;;;;;;;16.13;14.27;;;23.20;91.70;;;;;;5103467;28;20019;-69
2022/07/22 00:56:24;;;;;;;17.10;13.45;;;23.20;91.70;;;;;;5115730;28;20024;-70
2022/07/22 00:58:53;;;;;;;17.85;14.55;;;23.10;91.50;;;;;;5097902;28;20429;-72
2022/07/22 01:01:19;;;;;;;16.23;14.30;;;23.10;91.30;;;;;;5112349;28;20097;-71
2022/07/22 01:03:45;;;;;;;16.33;14.02;;;23.10;91.10;;;;;;5115589;28;20081;-75
2022/07/22 01:06:11;;;;;;;14.65;13.02;;;23.10;90.90;;;;;;5110155;28;20509;-74
2022/07/22 01:08:38;;;;;;;20.33;14.40;;;23.10;90.80;;;;;;5094017;28;20111;-74
2022/07/22 01:11:09;;;;;;;16.98;14.43;;;23.00;90.60;;;;;;5095190;28;20024;-73
2022/07/22 01:13:36;;;;;;;15.75;12.93;;;23.00;90.30;;;;;;5095211;28;20381;-71
2022/07/22 01:16:03;;;;;;;16.05;14.35;;;22.90;90.50;;;;;;5095163;28;20040;-72
2022/07/22 01:18:28;;;;;;;16.23;14.52;;;22.90;90.40;;;;;;5095152;28;20016;-72
2022/07/22 01:20:54;;;;;;;15.88;13.98;;;22.90;90.50;;;;;;5095502;27;20403;-70
2022/07/22 01:23:20;;;;;;;19.33;14.27;;;22.90;90.50;;;;;;5095543;27;20024;-74
2022/07/22 01:25:46;;;;;;;18.55;15.60;;;22.80;90.40;;;;;;5095092;28;20052;-73
2022/07/22 01:28:12;;;;;;;16.15;14.55;;;22.80;90.30;;;;;;5096959;27;20544;-74
2022/07/22 01:30:37;;;;;;;15.65;13.77;;;22.80;90.30;;;;;;5109576;28;20073;-73
2022/07/22 01:33:03;;;;;;;16.45;14.25;;;22.80;90.20;;;;;;5115224;28;20383;-71
2022/07/22 01:35:29;;;;;;;13.95;12.30;;;22.70;90.10;;;;;;5113942;28;20097;-71
2022/07/22 01:37:54;;;;;;;16.27;14.60;;;22.70;90.00;;;;;;5115133;28;20028;-74
2022/07/22 01:40:20;;;;;;;18.05;14.40;;;22.80;90.00;;;;;;5113704;28;20102;-73
2022/07/22 01:42:46;;;;;;;18.35;14.25;;;22.70;89.70;;;;;;5096885;27;20024;-72
2022/07/22 01:45:12;;;;;;;16.92;14.23;;;22.70;89.50;;;;;;5110934;28;20503;-73
2022/07/22 01:47:38;;;;;;;17.83;13.80;;;22.60;89.30;;;;;;5093941;28;20024;-69
2022/07/22 01:50:07;;;;;;;15.73;13.98;;;22.60;89.00;;;;;;5113041;28;20377;-72
2022/07/22 01:52:33;;;;;;;13.68;12.27;;;22.60;88.60;;;;;;5113855;28;20051;-69
2022/07/22 01:54:59;;;;;;;15.55;13.23;;;22.60;88.90;;;;;;5114798;28;20053;-74
2022/07/22 01:57:25;;;;;;;15.32;13.40;;;22.50;88.60;;;;;;5109631;28;20024;-73
2022/07/22 01:59:51;;;;;;;19.13;14.27;;;22.50;88.50;;;;;;5094267;28;20493;-76
2022/07/22 02:02:17;;;;;;;16.73;14.55;;;22.50;88.40;;;;;;5094173;28;20032;-72
2022/07/22 02:04:42;;;;;;;15.52;13.90;;;22.40;88.10;;;;;;5094237;28;20027;-76
2022/07/22 02:07:08;;;;;;;17.65;14.15;;;22.40;88.00;;;;;;5094191;28;20016;-74
2022/07/22 02:09:34;;;;;;;14.60;13.10;;;22.40;87.90;;;;;;5092962;28;20024;-71
2022/07/22 02:12:00;;;;;;;15.82;14.02;;;22.40;87.70;;;;;;5094076;28;20016;-75
2022/07/22 02:14:26;;;;;;;18.05;13.55;;;22.40;87.50;;;;;;5094021;28;20020;-74
2022/07/22 02:16:51;;;;;;;17.27;15.07;;;22.30;87.20;;;;;;5093774;28;20016;-71
2022/07/22 02:19:17;;;;;;;17.75;14.50;;;22.30;87.20;;;;;;5093888;28;20047;-74
2022/07/22 02:21:43;;;;;;;18.38;15.10;;;22.30;87.20;;;;;;5093683;28;20405;-73
2022/07/22 02:24:09;;;;;;;18.70;15.00;;;22.30;87.20;;;;;;5093808;28;20149;-75
2022/07/22 02:26:35;;;;;;;15.88;14.05;;;22.30;87.10;;;;;;5093810;28;20035;-71
2022/07/22 02:29:00;;;;;;;20.05;15.52;;;22.30;87.20;;;;;;5094021;28;20393;-72
2022/07/22 02:31:26;;;;;;;17.73;15.27;;;22.40;87.10;;;;;;5093604;28;20027;-77
2022/07/22 02:33:52;;;;;;;27.15;16.20;;;22.40;86.90;;;;;;5092374;28;20020;-74
2022/07/22 02:36:18;;;;;;;19.77;15.85;;;22.40;87.00;;;;;;5093484;28;20054;-72
2022/07/22 02:38:44;;;;;;;16.88;14.10;;;22.40;87.10;;;;;;5093544;28;20469;-70
2022/07/22 02:41:10;;;;;;;14.45;12.98;;;22.50;87.10;;;;;;5093534;28;20028;-75
2022/07/22 02:43:36;;;;;;;19.60;14.98;;;22.50;86.90;;;;;;5092157;28;20028;-77
2022/07/22 02:46:02;;;;;;;19.15;13.82;;;22.50;86.70;;;;;;5093404;28;20106;-75
2022/07/22 02:48:27;;;;;;;17.60;14.57;;;22.60;86.40;;;;;;5093428;28;20027;-75
2022/07/22 02:50:53;;;;;;;18.98;15.15;;;22.60;86.30;;;;;;5094249;28;20054;-73
2022/07/22 02:53:19;;;;;;;14.45;13.05;;;22.60;85.90;;;;;;5095748;28;20031;-72
2022/07/22 02:55:45;;;;;;;15.55;13.10;;;22.60;85.30;;;;;;5112382;28;20016;-70
2022/07/22 02:58:11;;;;;;;15.40;13.70;;;22.60;85.10;;;;;;5101033;28;20035;-73
2022/07/22 03:00:40;;;;;;;14.23;12.73;;;22.60;85.10;;;;;;5093235;28;20020;-74
2022/07/22 03:03:06;;;;;;;15.80;13.30;;;22.70;85.40;;;;;;5091843;28;20055;-70
2022/07/22 03:05:32;;;;;;;19.40;14.50;;;22.70;85.60;;;;;;5091914;28;20449;-74
2022/07/22 03:07:58;;;;;;;16.63;14.38;;;22.70;85.30;;;;;;5093039;28;20056;-72
2022/07/22 03:10:23;;;;;;;15.57;13.88;;;22.70;84.90;;;;;;5092975;28;20055;-71
2022/07/22 03:12:49;;;;;;;17.23;14.63;;;22.70;84.80;;;;;;5093109;28;20017;-74
2022/07/22 03:15:15;;;;;;;16.42;14.57;;;22.70;84.60;;;;;;5091775;28;20024;-72
2022/07/22 03:17:41;;;;;;;18.13;14.60;;;22.70;84.10;;;;;;5093034;28;20497;-74
2022/07/22 03:20:09;;;;;;;16.73;14.95;;;22.70;84.00;;;;;;5092565;28;20099;-74
2022/07/22 03:22:35;;;;;;;16.63;14.85;;;22.70;83.70;;;;;;5093361;28;20035;-78
2022/07/22 03:25:02;;;;;;;17.08;14.85;;;22.70;83.60;;;;;;5093005;28;20099;-73
2022/07/22 03:27:28;;;;;;;16.85;14.13;;;22.70;83.20;;;;;;5093311;28;20020;-75
2022/07/22 03:29:54;;;;;;;22.90;14.18;;;22.70;83.10;;;;;;5092912;28;20030;-75
2022/07/22 03:32:20;;;;;;;17.17;14.48;;;22.70;83.10;;;;;;5092976;28;20103;-73
2022/07/22 03:34:45;;;;;;;22.38;14.63;;;22.60;83.00;;;;;;5092859;28;20024;-74
2022/07/22 03:37:12;;;;;;;16.55;14.38;;;22.60;82.90;;;;;;5091590;28;20027;-73
2022/07/22 03:39:38;;;;;;;15.52;13.88;;;22.60;83.00;;;;;;5092177;28;20362;-77
2022/07/22 03:42:04;;;;;;;16.55;14.18;;;22.50;83.00;;;;;;5092773;28;20086;-74
2022/07/22 03:44:30;;;;;;;18.27;14.80;;;22.60;83.10;;;;;;5092873;28;20099;-74
2022/07/22 03:46:55;;;;;;;19.73;14.55;;;22.50;82.80;;;;;;5092655;28;20104;-78
2022/07/22 03:49:21;;;;;;;18.17;15.95;;;22.50;82.60;;;;;;5092682;28;20107;-74
2022/07/22 03:51:47;;;;;;;19.38;15.95;;;22.50;82.50;;;;;;5092458;28;20063;-75
2022/07/22 03:54:13;;;;;;;19.73;14.88;;;22.50;82.20;;;;;;5092736;28;20028;-72
2022/07/22 03:56:39;;;;;;;19.92;16.25;;;22.50;82.40;;;;;;5092700;28;20477;-75
2022/07/22 03:59:04;;;;;;;19.20;15.85;;;22.50;82.50;;;;;;5095318;28;20430;-73
2022/07/22 04:01:30;;;;;;;17.65;14.70;;;22.50;82.80;;;;;;5112872;28;20057;-73
2022/07/22 04:03:56;;;;;;;16.75;14.90;;;22.50;82.90;;;;;;5107920;28;20539;-74
2022/07/22 04:06:22;;;;;;;19.63;14.98;;;22.50;82.70;;;;;;5101857;28;20032;-75
2022/07/22 04:08:48;;;;;;;15.75;14.02;;;22.50;82.60;;;;;;5092495;28;20032;-73
2022/07/22 04:11:14;;;;;;;17.80;15.80;;;22.50;82.60;;;;;;5096242;28;20028;-74
2022/07/22 04:13:40;;;;;;;20.52;15.20;;;22.50;82.90;;;;;;5096305;28;20439;-73
2022/07/22 04:16:05;;;;;;;19.20;15.30;;;22.50;82.70;;;;;;5097650;27;20035;-72
2022/07/22 04:18:32;;;;;;;18.20;15.23;;;22.50;82.80;;;;;;5107803;28;20023;-74
2022/07/22 04:20:58;;;;;;;20.15;16.75;;;22.50;82.60;;;;;;5116375;28;20048;-72
2022/07/22 04:23:24;;;;;;;23.02;18.30;;;22.50;82.50;;;;;;5116385;28;20528;-74
2022/07/22 04:25:50;;;;;;;24.58;18.65;;;22.50;82.50;;;;;;5116525;28;20053;-73
2022/07/22 04:28:16;;;;;;;23.13;18.35;;;22.50;82.50;;;;;;5104737;28;20032;-75
2022/07/22 04:30:42;;;;;;;22.75;17.13;;;22.50;82.70;;;;;;5095916;28;20039;-77
2022/07/22 04:33:07;;;;;;;25.00;18.88;;;22.50;82.70;;;;;;5095910;28;20028;-73
2022/07/22 04:35:33;;;;;;;26.42;18.45;;;22.60;82.80;;;;;;5095845;28;20444;-77
2022/07/22 04:37:59;;;;;;;22.13;16.45;;;22.60;82.70;;;;;;5095731;28;20016;-74
2022/07/22 04:40:25;;;;;;;23.10;16.70;;;22.60;82.80;;;;;;5095806;28;20385;-73
2022/07/22 04:42:51;;;;;;;20.33;16.42;;;22.60;82.80;;;;;;5095735;28;20377;-75
2022/07/22 04:45:16;;;;;;;20.83;15.55;;;22.70;82.90;;;;;;5102765;28;20061;-76
2022/07/22 04:47:42;;;;;;;22.65;15.40;;;22.70;82.90;;;;;;5095677;28;20023;-76
2022/07/22 04:50:09;;;;;;;19.75;15.80;;;22.70;83.10;;;;;;5095536;28;20027;-71
2022/07/22 04:52:34;;;;;;;18.45;15.80;;;22.80;83.20;;;;;;5095561;28;20020;-75
2022/07/22 04:55:00;;;;;;;16.92;14.75;;;22.80;83.20;;;;;;5110827;28;20035;-79
2022/07/22 04:57:26;;;;;;;17.63;14.90;;;22.80;83.40;;;;;;5111611;28;20026;-71
2022/07/22 04:59:53;;;;;;;20.05;15.88;;;22.90;83.40;;;;;;5095422;28;20028;-75
2022/07/22 05:02:19;;;;;;;19.08;15.48;;;22.90;83.30;;;;;;5095431;28;20028;-75
2022/07/22 05:04:45;;;;;;;20.73;14.65;;;23.00;83.40;;;;;;5095210;28;20028;-77
2022/07/22 05:07:11;;;;;;;19.10;15.10;;;23.00;83.50;;;;;;5094013;28;20355;-74
2022/07/22 05:09:37;;;;;;;18.20;15.23;;;23.10;83.60;;;;;;5095258;28;20050;-72
2022/07/22 05:12:04;;;;;;;19.58;15.75;;;23.10;83.70;;;;;;5095364;28;20496;-77
2022/07/22 05:14:29;;;;;;;19.65;15.73;;;23.20;83.60;;;;;;5095099;28;20374;-71
2022/07/22 05:16:56;;;;;;;26.17;14.90;;;23.20;83.70;;;;;;5097286;27;20019;-77
2022/07/22 05:19:21;;;;;;;20.65;15.95;;;23.30;83.80;;;;;;5093771;28;20030;-74
2022/07/22 05:21:47;;;;;;;19.42;15.57;;;23.40;83.60;;;;;;5094623;28;20040;-73
2022/07/22 05:24:13;;;;;;;21.05;14.82;;;23.40;83.20;;;;;;5093945;28;20040;-77
2022/07/22 05:26:39;;;;;;;19.10;13.85;;;23.50;83.20;;;;;;5093721;28;20058;-72
2022/07/22 05:29:05;;;;;;;24.98;17.58;;;23.50;83.30;;;;;;5095213;28;20078;-76
2022/07/22 05:31:31;;;;;;;22.10;15.88;;;23.60;83.00;;;;;;5114788;27;20031;-70
2022/07/22 05:33:56;;;;;;;27.02;17.23;;;23.60;82.90;;;;;;5104753;28;20024;-76
2022/07/22 05:36:22;;;;;;;24.95;16.98;;;23.70;82.80;;;;;;5095912;28;20024;-78
2022/07/22 05:38:48;;;;;;;29.88;18.58;;;23.70;82.60;;;;;;5114794;27;20385;-73
2022/07/22 05:41:14;;;;;;;19.30;16.00;;;23.80;82.00;;;;;;5115139;28;20472;-78
2022/07/22 05:43:40;;;;;;;24.67;16.63;;;23.80;81.40;;;;;;5101403;28;20028;-76
2022/07/22 05:46:07;;;;;;;23.45;16.27;;;23.80;80.90;;;;;;5094397;28;20384;-74
2022/07/22 05:48:33;;;;;;;27.13;18.50;;;23.90;80.90;;;;;;5094341;28;20016;-71
2022/07/22 05:50:59;;;;;;;24.63;18.58;;;23.90;80.50;;;;;;5092973;28;20035;-79
2022/07/22 05:53:25;;;;;;;25.48;17.48;;;23.90;80.50;;;;;;5094337;28;20020;-77
2022/07/22 05:55:51;;;;;;;23.15;17.58;;;24.00;80.60;;;;;;5107737;28;20024;-75
2022/07/22 05:58:17;;;;;;;21.63;17.27;;;24.00;80.80;;;;;;5102657;28;20032;-75
2022/07/22 06:00:43;;;;;;;23.65;17.88;;;24.00;80.90;;;;;;5108895;28;20096;-74
2022/07/22 06:03:09;;;;;;;26.33;18.15;;;24.10;80.70;;;;;;5114689;28;20031;-78
2022/07/22 06:05:37;;;;;;;25.40;18.45;;;24.10;81.60;;;;;;5114423;28;20361;-73
2022/07/22 06:08:04;;;;;;;38.08;20.40;;;24.20;80.70;;;;;;5109481;28;20043;-74
2022/07/22 06:10:30;;;;;;;27.73;20.67;;;24.20;80.80;;;;;;5125628;27;20027;-73
2022/07/22 06:12:56;;;;;;;32.17;20.10;;;24.30;80.10;;;;;;5134913;27;20030;-72
2022/07/22 06:15:22;;;;;;;61.13;21.58;;;24.30;79.70;;;;;;5128308;27;20020;-73
2022/07/22 06:17:48;;;;;;;146.80;24.58;;;24.40;79.80;;;;;;5094021;28;20399;-74
2022/07/22 06:20:14;;;;;;;41.97;20.27;;;24.40;79.20;;;;;;5093727;28;20044;-74
2022/07/22 06:22:40;;;;;;;31.77;19.60;;;24.40;78.80;;;;;;5093728;28;20035;-72
2022/07/22 06:25:06;;;;;;;51.22;20.50;;;24.40;79.40;;;;;;5093780;28;20520;-73
2022/07/22 06:27:32;;;;;;;32.22;21.45;;;24.50;79.40;;;;;;5093939;28;20381;-73
2022/07/22 06:29:58;;;;;;;117.53;27.60;;;24.50;78.50;;;;;;5094753;28;20039;-73
2022/07/22 06:32:23;;;;;;;40.60;22.58;;;24.50;77.80;;;;;;5109528;28;20027;-73
2022/07/22 06:34:49;;;;;;;36.67;22.40;;;24.60;78.40;;;;;;5113982;28;20023;-74
2022/07/22 06:37:15;;;;;;;31.60;21.45;;;24.70;79.10;;;;;;5109345;28;20034;-74
2022/07/22 06:39:41;;;;;;;28.05;19.88;;;24.70;77.90;;;;;;5113823;28;20090;-75
2022/07/22 06:42:07;;;;;;;33.45;21.10;;;24.70;78.50;;;;;;5113706;28;20102;-73
2022/07/22 06:44:33;;;;;;;152.63;29.88;;;24.80;78.90;;;;;;5113685;28;20023;-73
2022/07/22 06:46:59;;;;;;;135.02;28.83;;;24.90;77.90;;;;;;5104896;27;20111;-74
2022/07/22 06:49:25;;;;;;;164.65;29.17;;;24.90;77.30;;;;;;5111189;28;20024;-74
2022/07/22 06:51:50;;;;;;;261.42;35.08;;;25.00;78.10;;;;;;5113576;28;20019;-74
2022/07/22 06:54:16;;;;;;;53.38;25.02;;;25.00;78.10;;;;;;5112292;28;20388;-74
2022/07/22 06:56:42;;;;;;;38.10;25.60;;;25.10;77.60;;;;;;5113667;28;20011;-74
2022/07/22 06:59:08;;;;;;;40.75;25.92;;;25.10;76.80;;;;;;5096275;28;20028;-74
2022/07/22 07:01:34;;;;;;;45.83;26.55;;;25.20;76.70;;;;;;5093131;28;20020;-74
2022/07/22 07:03:59;;;;;;;39.35;24.65;;;25.20;76.40;;;;;;5092931;28;20149;-74
2022/07/22 07:06:25;;;;;;;42.83;26.33;;;25.30;76.80;;;;;;5092806;28;20024;-74
2022/07/22 07:08:51;;;;;;;44.63;26.80;;;25.30;75.80;;;;;;5091719;28;20039;-74
2022/07/22 07:11:17;;;;;;;46.30;26.35;;;25.30;74.90;;;;;;5092912;28;20035;-74
2022/07/22 07:13:42;;;;;;;44.63;25.90;;;25.30;74.20;;;;;;5091545;28;20248;-74
2022/07/22 07:16:08;;;;;;;38.53;24.65;;;25.40;73.80;;;;;;5091689;28;20081;-74
2022/07/22 07:18:34;;;;;;;31.80;22.70;;;25.40;74.10;;;;;;5092872;28;20023;-74
2022/07/22 07:21:00;;;;;;;44.28;25.27;;;25.50;74.80;;;;;;5092693;28;20052;-74
2022/07/22 07:23:25;;;;;;;33.72;23.48;;;25.50;73.80;;;;;;5091571;28;20056;-74
2022/07/22 07:25:51;;;;;;;38.05;25.20;;;25.60;74.90;;;;;;5092810;28;20024;-74
2022/07/22 07:28:17;;;;;;;39.40;24.67;;;25.60;73.30;;;;;;5101302;28;20468;-74
2022/07/22 07:30:43;;;;;;;46.58;27.35;;;25.60;74.40;;;;;;5113026;28;20028;-74
2022/07/22 07:33:09;;;;;;;39.80;27.25;;;25.70;72.70;;;;;;5112897;28;20026;-74
2022/07/22 07:35:35;;;;;;;41.05;26.17;;;25.70;72.60;;;;;;5111744;28;20481;-74
2022/07/22 07:38:00;;;;;;;36.03;22.75;;;25.80;72.70;;;;;;5112929;28;20469;-74
2022/07/22 07:40:26;;;;;;;36.03;25.17;;;25.80;73.70;;;;;;5113053;28;20448;-74
2022/07/22 07:42:52;;;;;;;48.15;24.23;;;25.90;73.00;;;;;;5113060;28;20059;-74
2022/07/22 07:45:18;;;;;;;36.33;24.52;;;25.90;72.80;;;;;;5115719;28;20089;-74
2022/07/22 07:47:45;;;;;;;41.08;23.63;;;26.00;72.90;;;;;;5117129;28;20028;-74
2022/07/22 07:50:11;;;;;;;36.08;24.35;;;26.00;73.10;;;;;;5117014;28;20511;-74
2022/07/22 07:52:39;;;;;;;36.10;23.77;;;26.10;73.30;;;;;;5117112;28;20055;-74
2022/07/22 07:55:06;;;;;;;35.88;24.00;;;26.20;73.10;;;;;;5116924;28;20076;-74
2022/07/22 07:57:32;;;;;;;40.60;26.38;;;26.30;72.90;;;;;;5113872;28;20060;-74
2022/07/22 07:59:58;;;;;;;43.03;25.02;;;26.30;72.40;;;;;;5103860;28;20023;-74
2022/07/22 08:02:24;;;;;;;39.10;25.83;;;26.40;72.30;;;;;;5116901;28;20444;-74
2022/07/22 08:04:50;;;;;;;41.97;29.40;;;26.50;72.50;;;;;;5115357;28;20035;-74
2022/07/22 08:07:16;;;;;;;213.32;34.42;;;26.60;70.60;;;;;;5116749;27;20034;-74
2022/07/22 08:09:42;;;;;;;46.80;26.98;;;26.60;70.30;;;;;;5116574;28;20035;-74
2022/07/22 08:12:07;;;;;;;37.40;26.27;;;26.70;70.40;;;;;;5116642;28;20030;-73
2022/07/22 08:14:34;;;;;;;97.82;27.85;;;26.70;70.30;;;;;;5095173;28;20027;-74
2022/07/22 08:17:00;;;;;;;66.00;24.95;;;26.70;70.50;;;;;;5096204;28;20389;-74
2022/07/22 08:19:26;;;;;;;56.53;22.63;;;26.80;69.90;;;;;;5116655;28;20094;-74
2022/07/22 08:21:52;;;;;;;77.28;21.73;;;26.80;69.80;;;;;;5116380;28;20146;-74
2022/07/22 08:24:18;;;;;;;103.85;22.67;;;26.90;69.90;;;;;;5115567;28;20028;-74
2022/07/22 08:26:43;;;;;;;45.58;18.65;;;27.00;70.10;;;;;;5115153;28;20028;-74
2022/07/22 08:29:10;;;;;;;34.15;18.55;;;27.00;70.20;;;;;;5099988;28;20032;-74
2022/07/22 08:31:37;;;;;;;24.17;19.80;;;27.10;69.30;;;;;;5095943;28;20031;-74
2022/07/22 08:34:04;;;;;;;22.15;17.92;;;27.20;68.50;;;;;;5096016;28;20020;-74
2022/07/22 08:36:30;;;;;;;20.08;15.93;;;27.20;66.90;;;;;;5116123;27;20060;-74
2022/07/22 08:38:56;;;;;;;23.73;17.65;;;27.20;67.80;;;;;;5095919;28;20481;-74
2022/07/22 08:41:23;;;;;;;52.50;19.50;;;27.30;67.50;;;;;;5095741;28;20431;-74
2022/07/22 08:43:51;;;;;;;28.30;16.88;;;27.30;66.90;;;;;;5095814;28;20385;-76
2022/07/22 08:46:17;;;;;;;16.58;12.77;;;27.40;67.20;;;;;;5095579;28;20048;-74
2022/07/22 08:48:43;;;;;;;29.20;12.38;;;27.40;66.40;;;;;;5095700;28;20028;-74
2022/07/22 08:51:09;;;;;;;19.73;11.65;;;27.50;63.70;;;;;;5095549;28;20035;-75
2022/07/22 08:53:35;;;;;;;14.65;12.60;;;27.50;66.00;;;;;;5095588;28;20115;-74
2022/07/22 08:56:01;;;;;;;18.40;12.25;;;27.50;66.10;;;;;;5094952;28;20020;-74
2022/07/22 08:58:27;;;;;;;16.63;12.55;;;27.60;66.50;;;;;;5095772;28;20381;-74
2022/07/22 09:01:11;;;;;;;16.33;12.38;;;27.60;65.80;;;;;;5095532;28;20141;-74
2022/07/22 09:03:44;;;;;;;;;;;27.70;64.90;;;;;;5094481;28;20099;-74
2022/07/22 09:06:11;;;;;;;17.87;12.07;;;27.80;67.00;;;;;;5095348;28;19904;-74
2022/07/22 09:08:55;;;;;;;13.43;11.10;;;27.90;65.00;;;;;;5093874;28;20103;-74
2022/07/22 09:11:22;;;;;;;13.35;10.40;;;27.90;64.60;;;;;;5095061;28;20020;-74
2022/07/22 09:13:49;;;;;;;12.63;11.02;;;28.00;64.30;;;;;;5095167;28;20020;-74
2022/07/22 09:16:15;;;;;;;13.43;10.15;;;28.10;64.30;;;;;;5095070;28;20093;-75
2022/07/22 09:18:53;;;;;;;12.45;10.60;;;28.10;64.40;;;;;;5095061;28;20027;-75
2022/07/22 09:21:20;;;;;;;9.90;7.97;;;28.10;62.30;;;;;;5093586;28;20044;-74
2022/07/22 09:23:46;;;;;;;9.52;7.93;;;28.20;61.70;;;;;;5093570;28;20028;-75
2022/07/22 09:26:31;;;;;;;12.45;9.48;;;28.20;61.60;;;;;;5093555;28;20027;-75
2022/07/22 09:28:58;;;;;;;14.25;8.38;;;28.30;60.90;;;;;;5095022;28;20032;-75
2022/07/22 09:31:33;;;;;;;9.13;8.13;;;28.30;60.20;;;;;;5094609;28;20103;-75
2022/07/22 09:34:00;;;;;;;8.48;7.68;;;28.40;62.20;;;;;;5093479;28;20052;-75
2022/07/22 09:36:26;;;;;;;9.05;7.03;;;28.40;60.30;;;;;;5094646;28;20085;-74
2022/07/22 09:38:52;;;;;;;7.85;7.07;;;28.50;59.50;;;;;;5093362;28;20020;-75
2022/07/22 09:41:20;;;;;;;8.50;7.63;;;28.60;60.40;;;;;;5093180;28;20130;-74
2022/07/22 09:43:46;;;;;;;9.45;8.45;;;28.60;58.90;;;;;;5094408;28;20020;-76
2022/07/22 09:46:12;;;;;;;10.80;7.82;;;28.70;60.40;;;;;;5094380;28;20495;-75
2022/07/22 09:48:39;;;;;;;8.30;7.38;;;28.70;57.00;;;;;;5094435;28;20099;-74
2022/07/22 09:51:06;;;;;;;8.15;7.18;;;28.80;57.80;;;;;;5092869;28;20085;-75
2022/07/22 09:53:33;;;;;;;9.15;7.72;;;28.80;59.70;;;;;;5094341;28;20059;-76
2022/07/22 09:56:00;;;;;;;8.80;7.93;;;28.90;60.80;;;;;;5094251;28;20027;-76
2022/07/22 09:58:26;;;;;;;7.40;6.70;;;29.00;60.20;;;;;;5094802;28;20028;-76
2022/07/22 10:00:53;;;;;;;7.10;6.40;;;29.10;60.50;;;;;;5107949;28;20031;-74
2022/07/22 10:03:40;;;;;;;10.75;7.35;;;29.10;58.50;;;;;;5114526;28;20034;-76
2022/07/22 10:06:06;;;;;;;7.88;6.97;;;29.20;58.80;;;;;;5114345;28;20022;-74
2022/07/22 10:08:33;;;;;;;10.30;7.10;;;29.30;57.30;;;;;;5113725;28;20031;-76
2022/07/22 10:11:03;;;;;;;7.50;6.72;;;29.30;56.10;;;;;;5100489;28;20157;-75
2022/07/22 10:13:31;;;;;;;7.03;6.30;;;29.30;57.90;;;;;;5092614;28;20381;-74
2022/07/22 10:15:58;;;;;;;7.20;6.47;;;29.40;54.20;;;;;;5093908;28;20440;-74
2022/07/22 10:18:25;;;;;;;9.50;6.10;;;29.40;52.00;;;;;;5093804;28;20020;-74
2022/07/22 10:21:08;;;;;;;6.68;5.90;;;29.40;53.50;;;;;;5093510;28;20059;-75
2022/07/22 10:23:34;;;;;;;6.28;5.00;;;29.40;53.20;;;;;;5093926;28;20035;-75
2022/07/22 10:26:01;;;;;;;6.32;4.85;;;29.40;50.80;;;;;;5093748;28;20385;-75
2022/07/22 10:28:31;;;;;;;6.78;5.40;;;29.40;49.70;;;;;;5093978;28;20028;-75
2022/07/22 10:31:23;;;;;;;6.55;5.47;;;29.40;51.20;;;;;;5093412;28;20107;-74
2022/07/22 10:33:54;;;;;;;10.00;5.35;;;29.50;52.70;;;;;;5093452;28;20099;-73
2022/07/22 10:36:38;;;;;;;4.95;4.38;;;29.60;53.50;;;;;;5093623;28;20016;-73
2022/07/22 10:39:05;;;;;;;6.43;5.25;;;29.60;53.00;;;;;;5093460;28;20020;-73
2022/07/22 10:41:45;;;;;;;8.13;5.40;;;29.70;51.80;;;;;;5093315;28;20028;-73
2022/07/22 10:44:12;;;;;;;8.57;5.18;;;29.80;52.20;;;;;;5093337;28;20020;-73
2022/07/22 10:46:50;;;;;;;5.90;5.13;;;29.90;51.70;;;;;;5092103;28;20028;-73
2022/07/22 10:49:23;;;;;;;7.13;5.35;;;29.90;50.00;;;;;;5093269;28;20035;-73
2022/07/22 10:52:21;;;;;;;7.37;5.50;;;30.00;50.30;;;;;;5093208;28;20107;-73
2022/07/22 10:55:18;;;;;;;7.38;5.18;;;30.00;51.20;;;;;;5050680;28;20033;-73
2022/07/22 10:57:44;;;;;;;6.20;5.10;;;30.10;52.80;;;;;;5050839;28;20111;-73
2022/07/22 11:00:10;;;;;;;6.53;5.05;;;30.10;50.40;;;;;;5050959;28;20095;-73
2022/07/22 11:02:38;;;;;;;12.68;5.78;;;30.30;52.40;;;;;;5050856;28;20025;-73
2022/07/22 11:05:04;;;;;;;8.13;5.25;;;30.30;52.20;;;;;;5050618;28;20037;-72
2022/07/22 11:07:31;;;;;;;5.47;4.70;;;30.40;49.40;;;;;;5033855;28;20029;-73
2022/07/22 11:10:16;;;;;;;10.15;5.57;;;30.50;50.90;;;;;;5065359;28;20108;-73
2022/07/22 11:12:43;;;;;;;6.85;5.22;;;30.50;48.20;;;;;;5053677;28;20123;-73
2022/07/22 11:15:09;;;;;;;6.43;5.38;;;30.60;46.20;;;;;;5070370;28;20416;-73
2022/07/22 11:17:36;;;;;;;8.05;5.90;;;30.50;46.10;;;;;;5070485;28;20082;-73
2022/07/22 11:20:10;;;;;;;8.80;6.13;;;30.60;48.10;;;;;;5070140;28;20100;-72
2022/07/22 11:22:37;;;;;;;6.03;5.28;;;30.60;48.80;;;;;;5053582;28;20359;-72
2022/07/22 11:25:08;;;;;;;11.02;6.20;;;30.70;46.60;;;;;;5070364;28;20119;-73
2022/07/22 11:27:34;;;;;;;5.78;4.70;;;30.70;49.00;;;;;;5052244;28;20055;-73
2022/07/22 11:30:03;;;;;;;6.03;5.20;;;30.80;49.40;;;;;;5052047;28;20071;-73
2022/07/22 11:32:31;;;;;;;6.47;4.72;;;30.90;47.30;;;;;;5092758;28;20473;-73
2022/07/22 11:34:58;;;;;;;5.82;5.10;;;30.90;49.60;;;;;;5092657;28;20099;-72
2022/07/22 11:37:25;;;;;;;6.63;5.50;;;31.00;49.60;;;;;;5092800;28;20047;-73
2022/07/22 11:40:03;;;;;;;7.82;5.57;;;31.00;49.40;;;;;;5092704;28;20020;-73
2022/07/22 11:42:28;;;;;;;6.38;4.72;;;31.20;48.30;;;;;;5092781;28;20020;-73
2022/07/22 11:44:55;;;;;;;6.32;5.28;;;31.20;49.40;;;;;;5092989;28;20094;-73
2022/07/22 11:47:21;;;;;;;6.70;5.47;;;31.30;47.60;;;;;;5091061;28;20024;-72
2022/07/22 11:49:48;;;;;;;6.63;5.07;;;31.40;47.30;;;;;;5092536;28;20496;-72
2022/07/22 11:52:14;;;;;;;6.15;5.55;;;31.40;49.90;;;;;;5092611;28;20508;-74
2022/07/22 11:54:41;;;;;;;6.65;5.30;;;31.50;49.60;;;;;;5092375;28;20099;-74
2022/07/22 11:57:07;;;;;;;7.07;5.03;;;31.60;50.40;;;;;;5091223;28;20017;-72
2022/07/22 11:59:35;;;;;;;6.50;5.55;;;31.60;48.60;;;;;;5097578;28;20484;-72
2022/07/22 12:02:02;;;;;;;6.25;5.38;;;31.70;48.60;;;;;;5112825;28;20031;-71
2022/07/22 12:04:30;;;;;;;7.35;5.85;;;31.70;48.40;;;;;;5112744;28;20019;-73
2022/07/22 12:06:58;;;;;;;7.97;5.95;;;31.80;46.60;;;;;;5109467;28;20027;-72
2022/07/22 12:09:26;;;;;;;7.32;5.78;;;31.90;49.00;;;;;;5092693;28;20027;-72
2022/07/22 12:11:55;;;;;;;6.68;6.03;;;31.90;47.80;;;;;;5092149;28;20020;-70
2022/07/22 12:14:23;;;;;;;7.35;5.50;;;32.00;45.50;;;;;;5092291;28;20098;-70
2022/07/22 12:17:04;;;;;;;9.43;5.72;;;32.00;45.70;;;;;;5092141;28;20431;-71
2022/07/22 12:19:31;;;;;;;5.82;5.10;;;32.10;45.30;;;;;;5092283;28;20028;-73
2022/07/22 12:22:13;;;;;;;6.00;5.40;;;32.20;46.00;;;;;;5090762;28;20044;-71
2022/07/22 12:24:42;;;;;;;11.35;5.57;;;32.30;45.30;;;;;;5092297;28;20028;-72
2022/07/22 12:27:11;;;;;;;6.68;5.00;;;32.40;43.20;;;;;;5090869;28;20081;-70
2022/07/22 12:29:36;;;;;;;5.85;5.25;;;32.40;40.70;;;;;;5091262;28;20055;-70